Αρχική σελίδα
METAR-TAF:

METAR-TAF

Αεροδρόμια :

Ρεσίφε, Περναμπούκο, Βραζιλία

γεωγραφικό πλάτος: 08-08S, γεωγραφικό μήκος: 034-55W, υψόμετρο: 19 μ

Παρών καιρός

Η αναφορά έγινε 1 ώρα και 3 λεπτά πριν, στις 06:10 UTC
Άνεμος 4 kt από Ν/NA
Θερμοκρασία 25°C
Υγρασία 89%
Πίεση 1012 hPa
Ορατότητα: 9000 μ
Αρκετά νέφη σε ύψος 1800 πόδια
Όμβροι σε κοντινή απόσταση

METAR: SBRF 190610Z 16004KT 9000 VCSH BKN018 25/23 Q1012

Χρόνος: 04:13 (07:13 UTC)

Πρόγνωση Καιρού

Η αναφορά έγινε 3 ώρες και 13 λεπτά πριν, στις 04:00 UTC
Η πρόγνωση ισχύει από τις 19 στις 06 UTC έως τις 20 στις 06 UTC
Άνεμος 8 kt από Α/NA
Ορατότητα 10 χλμ και άνω
Διάσπαρτα νέφη σε ύψος 2300 πόδια

TAF: SBRF 190400Z 1906/2006 12008KT 9999 SCT023 TN27/1907Z TX31/1914Z RMK PEH

Μετεωρολογικές αναφορές και προγνώσεις για περισσότερα από 4000 αεροδρόμια (δελτία METAR και TAF).

Οι διαθέσιμοι σταθμοί απεικονίζονται στο χάρτη με κίτρινες και κόκκινες κουκκίδες.

Μετακινήστε το ποντίκι πάνω από τις κουκκίδες για να δείτε το όνομα του σταθμού.

Στη συνέχεια, κάντε κλικ για να δείτε τις μετεωρολογικές αναφορές και τις προγνώσεις καιρού.

Για να αλλάξετε το χάρτη: κάντε κλικ στα πράσινα κουμπιά με τον μαύρο σταυρό για να ζουμάρετε, στο πράσινο κουμπί με την παύλα για να αφαιρέσετε το ζουμ ή στα πράσινα βέλη για να αντιπαραβάλλετε χάρτες.


METAR-TAF: